sensor_id;sensor_type;location;lat;lon;timestamp;pressure;altitude;pressure_sealevel;temperature;humidity
67457;BME280;54319;52.038;4.640;2022-07-29T00:01:54;101877.50;;;15.82;69.21
67457;BME280;54319;52.038;4.640;2022-07-29T00:04:21;101884.56;;;15.82;69.57
67457;BME280;54319;52.038;4.640;2022-07-29T00:06:48;101887.22;;;15.80;69.61
67457;BME280;54319;52.038;4.640;2022-07-29T00:09:14;101876.69;;;15.77;69.78
67457;BME280;54319;52.038;4.640;2022-07-29T00:11:41;101875.84;;;15.75;70.08
67457;BME280;54319;52.038;4.640;2022-07-29T00:14:08;101881.16;;;15.74;69.77
67457;BME280;54319;52.038;4.640;2022-07-29T00:16:37;101868.88;;;15.71;70.05
67457;BME280;54319;52.038;4.640;2022-07-29T00:19:04;101867.13;;;15.67;69.96
67457;BME280;54319;52.038;4.640;2022-07-29T00:21:31;101862.75;;;15.66;69.88
67457;BME280;54319;52.038;4.640;2022-07-29T00:23:57;101866.34;;;15.63;70.14
67457;BME280;54319;52.038;4.640;2022-07-29T00:26:24;101863.69;;;15.63;70.53
67457;BME280;54319;52.038;4.640;2022-07-29T00:28:54;101861.06;;;15.62;70.47
67457;BME280;54319;52.038;4.640;2022-07-29T00:31:21;101857.56;;;15.60;70.45
67457;BME280;54319;52.038;4.640;2022-07-29T00:33:49;101862.00;;;15.58;70.65
67457;BME280;54319;52.038;4.640;2022-07-29T00:36:16;101865.56;;;15.57;70.75
67457;BME280;54319;52.038;4.640;2022-07-29T00:38:42;101862.94;;;15.55;70.59
67457;BME280;54319;52.038;4.640;2022-07-29T00:41:10;101862.94;;;15.54;70.58
67457;BME280;54319;52.038;4.640;2022-07-29T00:43:37;101859.44;;;15.52;70.61
67457;BME280;54319;52.038;4.640;2022-07-29T00:46:04;101863.84;;;15.53;70.83
67457;BME280;54319;52.038;4.640;2022-07-29T00:48:31;101854.16;;;15.52;71.14
67457;BME280;54319;52.038;4.640;2022-07-29T00:51:00;101848.03;;;15.50;71.12
67457;BME280;54319;52.038;4.640;2022-07-29T00:53:29;101856.00;;;15.46;70.92
67457;BME280;54319;52.038;4.640;2022-07-29T00:55:56;101848.13;;;15.43;71.03
67457;BME280;54319;52.038;4.640;2022-07-29T00:58:24;101849.91;;;15.43;71.35
67457;BME280;54319;52.038;4.640;2022-07-29T01:00:52;101856.09;;;15.40;71.38
67457;BME280;54319;52.038;4.640;2022-07-29T01:03:20;101848.19;;;15.39;71.40
67457;BME280;54319;52.038;4.640;2022-07-29T01:05:46;101848.25;;;15.37;71.56
67457;BME280;54319;52.038;4.640;2022-07-29T01:08:15;101844.69;;;15.37;71.93
67457;BME280;54319;52.038;4.640;2022-07-29T01:10:43;101842.06;;;15.37;71.96
67457;BME280;54319;52.038;4.640;2022-07-29T01:13:14;101844.75;;;15.35;72.04
67457;BME280;54319;52.038;4.640;2022-07-29T01:15:43;101839.47;;;15.34;72.01
67457;BME280;54319;52.038;4.640;2022-07-29T01:18:16;101843.03;;;15.33;72.15
67457;BME280;54319;52.038;4.640;2022-07-29T01:20:57;101842.13;;;15.32;72.15
67457;BME280;54319;52.038;4.640;2022-07-29T01:23:48;101834.28;;;15.29;72.10
67457;BME280;54319;52.038;4.640;2022-07-29T01:26:33;101835.16;;;15.28;72.52
67457;BME280;54319;52.038;4.640;2022-07-29T01:29:11;101836.06;;;15.27;72.37
67457;BME280;54319;52.038;4.640;2022-07-29T01:31:45;101839.63;;;15.24;72.29
67457;BME280;54319;52.038;4.640;2022-07-29T01:34:18;101831.72;;;15.23;72.62
67457;BME280;54319;52.038;4.640;2022-07-29T01:36:51;101837.91;;;15.22;72.80
67457;BME280;54319;52.038;4.640;2022-07-29T01:39:26;101842.34;;;15.20;72.77
67457;BME280;54319;52.038;4.640;2022-07-29T01:41:57;101837.94;;;15.19;73.08
67457;BME280;54319;52.038;4.640;2022-07-29T01:44:34;101839.72;;;15.17;72.98
67457;BME280;54319;52.038;4.640;2022-07-29T01:47:10;101834.50;;;15.14;73.28
67457;BME280;54319;52.038;4.640;2022-07-29T01:49:43;101833.63;;;15.12;73.58
67457;BME280;54319;52.038;4.640;2022-07-29T01:52:18;101831.00;;;15.10;73.59
67457;BME280;54319;52.038;4.640;2022-07-29T01:54:50;101833.69;;;15.09;73.79
67457;BME280;54319;52.038;4.640;2022-07-29T01:57:21;101834.56;;;15.07;74.08
67457;BME280;54319;52.038;4.640;2022-07-29T01:59:52;101826.66;;;15.06;74.04
67457;BME280;54319;52.038;4.640;2022-07-29T02:02:21;101828.44;;;15.05;73.85
67457;BME280;54319;52.038;4.640;2022-07-29T02:04:50;101821.50;;;15.00;74.12
67457;BME280;54319;52.038;4.640;2022-07-29T02:07:20;101812.75;;;14.96;74.22
67457;BME280;54319;52.038;4.640;2022-07-29T02:09:47;101811.91;;;14.93;74.40
67457;BME280;54319;52.038;4.640;2022-07-29T02:12:17;101816.31;;;14.92;74.73
67457;BME280;54319;52.038;4.640;2022-07-29T02:14:47;101815.47;;;14.90;74.97
67457;BME280;54319;52.038;4.640;2022-07-29T02:17:23;101813.72;;;14.89;74.98
67457;BME280;54319;52.038;4.640;2022-07-29T02:19:52;101815.53;;;14.85;74.81
67457;BME280;54319;52.038;4.640;2022-07-29T02:22:24;101812.91;;;14.84;75.17
67457;BME280;54319;52.038;4.640;2022-07-29T02:24:53;101806.81;;;14.80;75.26
67457;BME280;54319;52.038;4.640;2022-07-29T02:27:20;101811.22;;;14.80;75.39
67457;BME280;54319;52.038;4.640;2022-07-29T02:29:49;101807.69;;;14.79;75.27
67457;BME280;54319;52.038;4.640;2022-07-29T02:32:21;101806.81;;;14.79;75.23
67457;BME280;54319;52.038;4.640;2022-07-29T02:34:49;101808.59;;;14.77;75.25
67457;BME280;54319;52.038;4.640;2022-07-29T02:37:17;101809.50;;;14.76;75.56
67457;BME280;54319;52.038;4.640;2022-07-29T02:39:45;101802.47;;;14.75;75.57
67457;BME280;54319;52.038;4.640;2022-07-29T02:42:16;101815.72;;;14.73;75.30
67457;BME280;54319;52.038;4.640;2022-07-29T02:44:44;101811.28;;;14.74;75.62
67457;BME280;54319;52.038;4.640;2022-07-29T02:47:13;101807.81;;;14.69;75.97
67457;BME280;54319;52.038;4.640;2022-07-29T02:49:49;101804.31;;;14.68;75.61
67457;BME280;54319;52.038;4.640;2022-07-29T02:52:22;101804.31;;;14.68;76.05
67457;BME280;54319;52.038;4.640;2022-07-29T02:54:54;101801.72;;;14.65;75.77
67457;BME280;54319;52.038;4.640;2022-07-29T02:57:30;101793.84;;;14.63;75.79
67457;BME280;54319;52.038;4.640;2022-07-29T03:00:02;101798.25;;;14.63;75.66
67457;BME280;54319;52.038;4.640;2022-07-29T03:02:34;101797.38;;;14.62;75.87
67457;BME280;54319;52.038;4.640;2022-07-29T03:05:06;101800.88;;;14.61;76.30
67457;BME280;54319;52.038;4.640;2022-07-29T03:07:35;101804.44;;;14.60;75.97
67457;BME280;54319;52.038;4.640;2022-07-29T03:10:03;101799.16;;;14.59;76.03
67457;BME280;54319;52.038;4.640;2022-07-29T03:12:31;101798.31;;;14.55;75.79
67457;BME280;54319;52.038;4.640;2022-07-29T03:14:59;101793.91;;;14.54;75.57
67457;BME280;54319;52.038;4.640;2022-07-29T03:17:28;101791.28;;;14.53;76.20
67457;BME280;54319;52.038;4.640;2022-07-29T03:19:57;101799.22;;;14.51;76.14
67457;BME280;54319;52.038;4.640;2022-07-29T03:22:26;101786.94;;;14.50;76.31
67457;BME280;54319;52.038;4.640;2022-07-29T03:24:53;101793.13;;;14.48;76.16
67457;BME280;54319;52.038;4.640;2022-07-29T03:27:20;101787.00;;;14.45;76.35
67457;BME280;54319;52.038;4.640;2022-07-29T03:29:47;101792.28;;;14.44;76.33
67457;BME280;54319;52.038;4.640;2022-07-29T03:32:14;101784.41;;;14.42;76.42
67457;BME280;54319;52.038;4.640;2022-07-29T03:34:41;101778.28;;;14.40;76.48
67457;BME280;54319;52.038;4.640;2022-07-29T03:37:08;101782.66;;;14.40;76.34
67457;BME280;54319;52.038;4.640;2022-07-29T03:39:39;101788.84;;;14.37;76.32
67457;BME280;54319;52.038;4.640;2022-07-29T03:42:10;101787.13;;;14.35;76.02
67457;BME280;54319;52.038;4.640;2022-07-29T03:44:39;101788.91;;;14.31;76.27
67457;BME280;54319;52.038;4.640;2022-07-29T03:47:09;101788.94;;;14.30;76.17
67457;BME280;54319;52.038;4.640;2022-07-29T03:49:37;101788.94;;;14.28;76.46
67457;BME280;54319;52.038;4.640;2022-07-29T03:52:05;101782.81;;;14.26;76.72
67457;BME280;54319;52.038;4.640;2022-07-29T03:54:32;101784.59;;;14.24;76.64
67457;BME280;54319;52.038;4.640;2022-07-29T03:57:01;101785.53;;;14.20;76.42
67457;BME280;54319;52.038;4.640;2022-07-29T03:59:30;101776.75;;;14.21;76.55
67457;BME280;54319;52.038;4.640;2022-07-29T04:02:00;101793.41;;;14.21;76.87
67457;BME280;54319;52.038;4.640;2022-07-29T04:04:27;101781.13;;;14.20;76.84
67457;BME280;54319;52.038;4.640;2022-07-29T04:06:54;101782.88;;;14.20;76.42
67457;BME280;54319;52.038;4.640;2022-07-29T04:09:20;101788.16;;;14.20;76.38
67457;BME280;54319;52.038;4.640;2022-07-29T04:11:48;101789.03;;;14.20;76.64
67457;BME280;54319;52.038;4.640;2022-07-29T04:14:16;101798.69;;;14.21;76.50
67457;BME280;54319;52.038;4.640;2022-07-29T04:16:43;101791.66;;;14.22;76.16
67457;BME280;54319;52.038;4.640;2022-07-29T04:19:10;101794.28;;;14.23;76.29
67457;BME280;54319;52.038;4.640;2022-07-29T04:21:37;101796.00;;;14.24;76.39
67457;BME280;54319;52.038;4.640;2022-07-29T04:24:05;101794.22;;;14.27;76.57
67457;BME280;54319;52.038;4.640;2022-07-29T04:26:32;101790.72;;;14.28;76.19
67457;BME280;54319;52.038;4.640;2022-07-29T04:28:58;101787.19;;;14.29;76.19
67457;BME280;54319;52.038;4.640;2022-07-29T04:31:27;101791.59;;;14.28;76.34
67457;BME280;54319;52.038;4.640;2022-07-29T04:33:54;101782.81;;;14.26;76.40
67457;BME280;54319;52.038;4.640;2022-07-29T04:36:21;101789.88;;;14.22;76.49
67457;BME280;54319;52.038;4.640;2022-07-29T04:38:49;101787.25;;;14.22;76.86
67457;BME280;54319;52.038;4.640;2022-07-29T04:41:16;101791.66;;;14.20;76.78
67457;BME280;54319;52.038;4.640;2022-07-29T04:43:42;101789.00;;;14.22;77.24
67457;BME280;54319;52.038;4.640;2022-07-29T04:46:09;101782.03;;;14.19;76.88
67457;BME280;54319;52.038;4.640;2022-07-29T04:48:37;101790.78;;;14.21;76.90
67457;BME280;54319;52.038;4.640;2022-07-29T04:51:04;101789.88;;;14.24;77.06
67457;BME280;54319;52.038;4.640;2022-07-29T04:53:31;101796.00;;;14.24;77.01
67457;BME280;54319;52.038;4.640;2022-07-29T04:55:58;101792.50;;;14.24;76.60
67457;BME280;54319;52.038;4.640;2022-07-29T04:58:24;101793.38;;;14.26;76.22
67457;BME280;54319;52.038;4.640;2022-07-29T05:00:51;101789.00;;;14.23;75.94
67457;BME280;54319;52.038;4.640;2022-07-29T05:03:18;101785.47;;;14.24;76.12
67457;BME280;54319;52.038;4.640;2022-07-29T05:05:46;101779.31;;;14.24;76.42
67457;BME280;54319;52.038;4.640;2022-07-29T05:08:14;101781.03;;;14.28;76.22
67457;BME280;54319;52.038;4.640;2022-07-29T05:10:40;101781.91;;;14.30;76.20
67457;BME280;54319;52.038;4.640;2022-07-29T05:13:07;101784.53;;;14.32;76.20
67457;BME280;54319;52.038;4.640;2022-07-29T05:15:34;101788.03;;;14.32;76.17
67457;BME280;54319;52.038;4.640;2022-07-29T05:18:03;101790.66;;;14.34;75.92
67457;BME280;54319;52.038;4.640;2022-07-29T05:20:30;101782.72;;;14.35;75.84
67457;BME280;54319;52.038;4.640;2022-07-29T05:23:00;101795.94;;;14.34;75.79
67457;BME280;54319;52.038;4.640;2022-07-29T05:25:28;101790.66;;;14.34;76.05
67457;BME280;54319;52.038;4.640;2022-07-29T05:27:56;101795.94;;;14.34;75.88
67457;BME280;54319;52.038;4.640;2022-07-29T05:30:23;101797.66;;;14.33;75.95
67457;BME280;54319;52.038;4.640;2022-07-29T05:32:50;101792.38;;;14.35;76.28
67457;BME280;54319;52.038;4.640;2022-07-29T05:35:17;101793.25;;;14.38;76.30
67457;BME280;54319;52.038;4.640;2022-07-29T05:37:44;101801.94;;;14.45;76.34
67457;BME280;54319;52.038;4.640;2022-07-29T05:40:12;101807.13;;;14.53;76.04
67457;BME280;54319;52.038;4.640;2022-07-29T05:42:39;101804.44;;;14.60;76.04
67457;BME280;54319;52.038;4.640;2022-07-29T05:45:06;101813.09;;;14.69;75.38
67457;BME280;54319;52.038;4.640;2022-07-29T05:47:33;101809.44;;;14.80;74.98
67457;BME280;54319;52.038;4.640;2022-07-29T05:50:00;101814.59;;;14.91;74.23
67457;BME280;54319;52.038;4.640;2022-07-29T05:52:27;101808.25;;;15.04;74.07
67457;BME280;54319;52.038;4.640;2022-07-29T05:54:54;101811.56;;;15.17;73.45
67457;BME280;54319;52.038;4.640;2022-07-29T05:57:23;101814.06;;;15.26;72.89
67457;BME280;54319;52.038;4.640;2022-07-29T05:59:50;101818.28;;;15.38;72.19
67457;BME280;54319;52.038;4.640;2022-07-29T06:02:17;101819.03;;;15.46;72.44
67457;BME280;54319;52.038;4.640;2022-07-29T06:04:44;101815.41;;;15.54;72.05
67457;BME280;54319;52.038;4.640;2022-07-29T06:07:12;101816.13;;;15.63;72.25
67457;BME280;54319;52.038;4.640;2022-07-29T06:09:38;101823.97;;;15.68;71.31
67457;BME280;54319;52.038;4.640;2022-07-29T06:12:05;101817.78;;;15.72;70.98
67457;BME280;54319;52.038;4.640;2022-07-29T06:14:34;101816.00;;;15.73;70.47
67457;BME280;54319;52.038;4.640;2022-07-29T06:17:03;101810.63;;;15.77;70.52
67457;BME280;54319;52.038;4.640;2022-07-29T06:19:29;101807.84;;;15.85;71.23
67457;BME280;54319;52.038;4.640;2022-07-29T06:21:56;101811.25;;;15.92;70.75
67457;BME280;54319;52.038;4.640;2022-07-29T06:24:24;101812.00;;;16.00;70.56
67457;BME280;54319;52.038;4.640;2022-07-29T06:26:52;101813.56;;;16.12;70.64
67457;BME280;54319;52.038;4.640;2022-07-29T06:29:19;101815.19;;;16.19;69.61
67457;BME280;54319;52.038;4.640;2022-07-29T06:31:47;101818.47;;;16.32;69.71
67457;BME280;54319;52.038;4.640;2022-07-29T06:34:13;101819.03;;;16.46;69.54
67457;BME280;54319;52.038;4.640;2022-07-29T06:36:41;101828.44;;;16.61;67.97
67457;BME280;54319;52.038;4.640;2022-07-29T06:39:08;101829.97;;;16.73;67.46
67457;BME280;54319;52.038;4.640;2022-07-29T06:41:35;101834.22;;;16.81;67.64
67457;BME280;54319;52.038;4.640;2022-07-29T06:44:02;101831.25;;;16.97;67.80
67457;BME280;54319;52.038;4.640;2022-07-29T06:46:29;101829.22;;;17.08;66.96
67457;BME280;54319;52.038;4.640;2022-07-29T06:48:57;101833.38;;;17.20;66.48
67457;BME280;54319;52.038;4.640;2022-07-29T06:51:26;101829.69;;;17.27;66.73
67457;BME280;54319;52.038;4.640;2022-07-29T06:53:53;101824.31;;;17.30;66.16
67457;BME280;54319;52.038;4.640;2022-07-29T06:56:22;101833.78;;;17.40;65.86
67457;BME280;54319;52.038;4.640;2022-07-29T06:58:49;101828.44;;;17.43;65.72
67457;BME280;54319;52.038;4.640;2022-07-29T07:01:16;101833.38;;;17.57;65.17
67457;BME280;54319;52.038;4.640;2022-07-29T07:03:42;101838.59;;;17.60;64.09
67457;BME280;54319;52.038;4.640;2022-07-29T07:06:11;101843.19;;;17.53;64.25
67457;BME280;54319;52.038;4.640;2022-07-29T07:08:38;101849.13;;;17.63;64.32
67457;BME280;54319;52.038;4.640;2022-07-29T07:11:04;101848.13;;;17.67;64.83
67457;BME280;54319;52.038;4.640;2022-07-29T07:13:32;101853.09;;;17.81;65.22
67457;BME280;54319;52.038;4.640;2022-07-29T07:16:00;101853.44;;;18.05;65.93
67457;BME280;54319;52.038;4.640;2022-07-29T07:18:27;101849.56;;;18.17;62.88
67457;BME280;54319;52.038;4.640;2022-07-29T07:20:54;101860.88;;;18.23;63.41
67457;BME280;54319;52.038;4.640;2022-07-29T07:23:24;101856.97;;;18.37;63.08
67457;BME280;54319;52.038;4.640;2022-07-29T07:25:51;101851.34;;;18.49;63.59
67457;BME280;54319;52.038;4.640;2022-07-29T07:28:18;101851.91;;;18.60;62.77
67457;BME280;54319;52.038;4.640;2022-07-29T07:30:45;101851.38;;;18.79;62.29
67457;BME280;54319;52.038;4.640;2022-07-29T07:33:11;101848.53;;;18.86;61.08
67457;BME280;54319;52.038;4.640;2022-07-29T07:35:38;101852.47;;;19.01;61.94
67457;BME280;54319;52.038;4.640;2022-07-29T07:38:05;101855.75;;;19.11;60.43
67457;BME280;54319;52.038;4.640;2022-07-29T07:40:33;101859.66;;;19.27;60.69
67457;BME280;54319;52.038;4.640;2022-07-29T07:43:00;101865.72;;;19.32;59.79
67457;BME280;54319;52.038;4.640;2022-07-29T07:45:27;101856.44;;;19.46;58.72
67457;BME280;54319;52.038;4.640;2022-07-29T07:47:55;101860.84;;;19.45;59.42
67457;BME280;54319;52.038;4.640;2022-07-29T07:50:21;101854.84;;;19.67;60.13
67457;BME280;54319;52.038;4.640;2022-07-29T07:52:50;101863.28;;;19.81;59.23
67457;BME280;54319;52.038;4.640;2022-07-29T07:55:18;101864.13;;;19.82;57.95
67457;BME280;54319;52.038;4.640;2022-07-29T07:57:47;101860.16;;;19.67;58.87
67457;BME280;54319;52.038;4.640;2022-07-29T08:00:15;101859.44;;;19.62;57.81
67457;BME280;54319;52.038;4.640;2022-07-29T08:02:43;101857.09;;;19.52;58.94
67457;BME280;54319;52.038;4.640;2022-07-29T08:05:11;101853.28;;;19.61;59.68
67457;BME280;54319;52.038;4.640;2022-07-29T08:07:42;101852.97;;;19.72;58.62
67457;BME280;54319;52.038;4.640;2022-07-29T08:10:09;101851.19;;;19.71;58.82
67457;BME280;54319;52.038;4.640;2022-07-29T08:12:36;101859.66;;;19.55;58.41
67457;BME280;54319;52.038;4.640;2022-07-29T08:15:05;101853.94;;;19.68;58.05
67457;BME280;54319;52.038;4.640;2022-07-29T08:17:33;101850.78;;;19.56;58.24
67457;BME280;54319;52.038;4.640;2022-07-29T08:19:59;101847.13;;;19.59;59.02
67457;BME280;54319;52.038;4.640;2022-07-29T08:22:27;101844.66;;;19.81;58.79
67457;BME280;54319;52.038;4.640;2022-07-29T08:24:53;101851.78;;;20.06;57.85
67457;BME280;54319;52.038;4.640;2022-07-29T08:27:22;101852.13;;;20.22;58.16
67457;BME280;54319;52.038;4.640;2022-07-29T08:29:48;101852.16;;;20.45;57.51
67457;BME280;54319;52.038;4.640;2022-07-29T08:32:17;101852.22;;;20.69;54.77
67457;BME280;54319;52.038;4.640;2022-07-29T08:34:43;101851.09;;;21.66;52.00
67457;BME280;54319;52.038;4.640;2022-07-29T08:37:11;101852.25;;;22.62;50.53
67457;BME280;54319;52.038;4.640;2022-07-29T08:39:38;101856.06;;;23.52;48.23
67457;BME280;54319;52.038;4.640;2022-07-29T08:42:06;101867.84;;;24.01;45.90
67457;BME280;54319;52.038;4.640;2022-07-29T08:44:33;101866.63;;;23.91;47.74
67457;BME280;54319;52.038;4.640;2022-07-29T08:47:00;101855.88;;;23.74;46.46
67457;BME280;54319;52.038;4.640;2022-07-29T08:49:30;101862.88;;;23.40;46.84
67457;BME280;54319;52.038;4.640;2022-07-29T08:51:58;101863.28;;;23.13;48.65
67457;BME280;54319;52.038;4.640;2022-07-29T08:54:27;101857.34;;;22.48;49.88
67457;BME280;54319;52.038;4.640;2022-07-29T08:56:54;101867.75;;;22.54;52.04
67457;BME280;54319;52.038;4.640;2022-07-29T08:59:25;101862.56;;;22.51;50.88
67457;BME280;54319;52.038;4.640;2022-07-29T09:01:54;101866.34;;;22.45;50.22
67457;BME280;54319;52.038;4.640;2022-07-29T09:04:21;101853.84;;;22.27;50.74
67457;BME280;54319;52.038;4.640;2022-07-29T09:06:51;101856.50;;;22.07;51.25
67457;BME280;54319;52.038;4.640;2022-07-29T09:09:20;101857.47;;;22.04;52.89
67457;BME280;54319;52.038;4.640;2022-07-29T09:11:48;101860.13;;;22.04;51.96
67457;BME280;54319;52.038;4.640;2022-07-29T09:14:15;101855.38;;;21.70;52.00
67457;BME280;54319;52.038;4.640;2022-07-29T09:16:49;101859.72;;;21.50;53.18
67457;BME280;54319;52.038;4.640;2022-07-29T09:19:20;101857.44;;;21.41;54.14
67457;BME280;54319;52.038;4.640;2022-07-29T09:21:48;101848.59;;;21.39;54.14
67457;BME280;54319;52.038;4.640;2022-07-29T09:24:26;101845.88;;;21.62;54.82
67457;BME280;54319;52.038;4.640;2022-07-29T09:26:54;101841.00;;;21.74;53.88
67457;BME280;54319;52.038;4.640;2022-07-29T09:29:22;101850.47;;;21.81;53.80
67457;BME280;54319;52.038;4.640;2022-07-29T09:31:51;101844.31;;;21.99;54.07
67457;BME280;54319;52.038;4.640;2022-07-29T09:34:22;101843.53;;;22.18;53.14
67457;BME280;54319;52.038;4.640;2022-07-29T09:36:51;101850.84;;;22.13;52.81
67457;BME280;54319;52.038;4.640;2022-07-29T09:39:29;101846.31;;;22.15;53.73
67457;BME280;54319;52.038;4.640;2022-07-29T09:41:58;101847.28;;;22.14;53.33
67457;BME280;54319;52.038;4.640;2022-07-29T09:44:26;101854.31;;;22.15;52.70
67457;BME280;54319;52.038;4.640;2022-07-29T09:46:57;101853.69;;;21.89;53.20
67457;BME280;54319;52.038;4.640;2022-07-29T09:49:31;101851.81;;;22.12;54.14
67457;BME280;54319;52.038;4.640;2022-07-29T09:52:00;101850.09;;;22.31;53.44
67457;BME280;54319;52.038;4.640;2022-07-29T09:54:28;101852.00;;;22.48;53.53
67457;BME280;54319;52.038;4.640;2022-07-29T09:57:02;101846.13;;;22.79;52.54
67457;BME280;54319;52.038;4.640;2022-07-29T09:59:29;101851.38;;;23.01;51.27
67457;BME280;54319;52.038;4.640;2022-07-29T10:01:56;101853.03;;;23.04;51.78
67457;BME280;54319;52.038;4.640;2022-07-29T10:04:23;101857.34;;;23.25;50.65
67457;BME280;54319;52.038;4.640;2022-07-29T10:06:57;101851.31;;;23.39;49.00
67457;BME280;54319;52.038;4.640;2022-07-29T10:09:25;101844.88;;;23.43;49.19
67457;BME280;54319;52.038;4.640;2022-07-29T10:12:05;101850.53;;;23.37;48.62
67457;BME280;54319;52.038;4.640;2022-07-29T10:14:34;101841.81;;;23.51;48.65
67457;BME280;54319;52.038;4.640;2022-07-29T10:17:02;101842.13;;;23.62;48.84
67457;BME280;54319;52.038;4.640;2022-07-29T10:19:29;101838.75;;;23.59;48.22
67457;BME280;54319;52.038;4.640;2022-07-29T10:21:57;101844.25;;;23.92;48.09
67457;BME280;54319;52.038;4.640;2022-07-29T10:24:25;101844.63;;;24.02;47.05
67457;BME280;54319;52.038;4.640;2022-07-29T10:26:55;101836.03;;;24.13;47.13
67457;BME280;54319;52.038;4.640;2022-07-29T10:29:23;101846.34;;;24.20;46.34
67457;BME280;54319;52.038;4.640;2022-07-29T10:32:00;101838.09;;;24.07;45.73
67457;BME280;54319;52.038;4.640;2022-07-29T10:34:36;101848.19;;;24.02;45.91
67457;BME280;54319;52.038;4.640;2022-07-29T10:37:24;101848.78;;;24.25;45.86
67457;BME280;54319;52.038;4.640;2022-07-29T10:40:00;101842.69;;;24.39;46.47
67457;BME280;54319;52.038;4.640;2022-07-29T10:42:49;101838.28;;;24.55;45.86
67457;BME280;54319;52.038;4.640;2022-07-29T10:45:18;101840.03;;;24.72;45.63
67457;BME280;54319;52.038;4.640;2022-07-29T10:47:45;101837.63;;;24.99;45.78
67457;BME280;54319;52.038;4.640;2022-07-29T10:50:12;101833.84;;;25.35;44.33
67457;BME280;54319;52.038;4.640;2022-07-29T10:52:53;101830.38;;;25.33;42.64
67457;BME280;54319;52.038;4.640;2022-07-29T10:55:33;101834.09;;;25.15;42.31
67457;BME280;54319;52.038;4.640;2022-07-29T10:58:15;101833.06;;;25.33;43.27
67457;BME280;54319;52.038;4.640;2022-07-29T11:00:44;101829.88;;;25.26;43.40
67457;BME280;54319;52.038;4.640;2022-07-29T11:03:42;101828.94;;;25.27;42.86
67457;BME280;54319;52.038;4.640;2022-07-29T11:06:09;101828.56;;;25.33;41.97
67457;BME280;54319;52.038;4.640;2022-07-29T11:08:36;101823.75;;;25.55;42.24
67457;BME280;54319;52.038;4.640;2022-07-29T11:14:05;101827.75;;;25.78;40.73
67457;BME280;54319;52.038;4.640;2022-07-29T11:17:00;101826.44;;;25.85;39.98
67457;BME280;54319;52.038;4.640;2022-07-29T11:19:28;101816.41;;;25.88;40.73
67457;BME280;54319;52.038;4.640;2022-07-29T11:21:57;101817.94;;;25.92;39.73
67457;BME280;54319;52.038;4.640;2022-07-29T11:24:25;101815.19;;;26.08;40.09
67457;BME280;54319;52.038;4.640;2022-07-29T11:27:13;101815.00;;;26.26;40.00
67457;BME280;54319;52.038;4.640;2022-07-29T11:29:51;101816.13;;;26.66;39.41
67457;BME280;54319;52.038;4.640;2022-07-29T11:32:22;101818.13;;;26.77;38.44
67457;BME280;54319;52.038;4.640;2022-07-29T11:35:09;101813.38;;;26.52;39.40
67457;BME280;54319;52.038;4.640;2022-07-29T11:37:36;101824.75;;;26.57;37.68
67457;BME280;54319;52.038;4.640;2022-07-29T11:40:21;101821.88;;;26.46;38.61
67457;BME280;54319;52.038;4.640;2022-07-29T11:42:49;101816.28;;;26.63;38.42
67457;BME280;54319;52.038;4.640;2022-07-29T11:45:22;101817.72;;;26.54;37.16
67457;BME280;54319;52.038;4.640;2022-07-29T11:47:55;101821.44;;;26.52;38.84
67457;BME280;54319;52.038;4.640;2022-07-29T11:50:33;101817.34;;;26.75;38.75
67457;BME280;54319;52.038;4.640;2022-07-29T11:53:02;101811.28;;;26.71;38.32
67457;BME280;54319;52.038;4.640;2022-07-29T11:55:29;101820.34;;;26.70;38.27
67457;BME280;54319;52.038;4.640;2022-07-29T11:58:01;101827.72;;;26.67;39.12
67457;BME280;54319;52.038;4.640;2022-07-29T12:00:30;101825.03;;;26.67;37.36
67457;BME280;54319;52.038;4.640;2022-07-29T12:03:01;101827.72;;;26.81;37.62
67457;BME280;54319;52.038;4.640;2022-07-29T12:05:36;101823.88;;;26.71;38.37
67457;BME280;54319;52.038;4.640;2022-07-29T12:08:06;101812.34;;;26.69;37.76
67457;BME280;54319;52.038;4.640;2022-07-29T12:10:33;101818.50;;;26.57;36.70
67457;BME280;54319;52.038;4.640;2022-07-29T12:13:00;101827.34;;;26.73;33.64
67457;BME280;54319;52.038;4.640;2022-07-29T12:15:27;101823.59;;;26.75;33.50
67457;BME280;54319;52.038;4.640;2022-07-29T12:17:54;101829.94;;;26.74;37.05
67457;BME280;54319;52.038;4.640;2022-07-29T12:20:27;101838.94;;;26.73;36.28
67457;BME280;54319;52.038;4.640;2022-07-29T12:22:54;101838.16;;;26.86;34.93
67457;BME280;54319;52.038;4.640;2022-07-29T12:25:23;101836.44;;;26.85;34.15
67457;BME280;54319;52.038;4.640;2022-07-29T12:28:00;101836.88;;;27.06;33.63
67457;BME280;54319;52.038;4.640;2022-07-29T12:30:41;101834.50;;;27.01;32.53
67457;BME280;54319;52.038;4.640;2022-07-29T12:33:20;101832.97;;;26.97;31.77
67457;BME280;54319;52.038;4.640;2022-07-29T12:35:51;101835.97;;;27.20;33.29
67457;BME280;54319;52.038;4.640;2022-07-29T12:38:20;101833.50;;;27.16;33.96
67457;BME280;54319;52.038;4.640;2022-07-29T12:40:48;101836.91;;;27.33;35.22
67457;BME280;54319;52.038;4.640;2022-07-29T12:43:18;101835.34;;;27.43;34.51
67457;BME280;54319;52.038;4.640;2022-07-29T12:45:46;101835.88;;;27.48;34.09
67457;BME280;54319;52.038;4.640;2022-07-29T12:48:16;101833.88;;;27.52;34.80
67457;BME280;54319;52.038;4.640;2022-07-29T12:50:56;101830.97;;;27.55;34.70
67457;BME280;54319;52.038;4.640;2022-07-29T12:53:24;101834.13;;;27.74;34.81
67457;BME280;54319;52.038;4.640;2022-07-29T12:55:53;101833.72;;;27.81;34.81
67457;BME280;54319;52.038;4.640;2022-07-29T12:58:32;101831.94;;;27.94;34.19
67457;BME280;54319;52.038;4.640;2022-07-29T13:01:03;101831.31;;;28.16;33.84
67457;BME280;54319;52.038;4.640;2022-07-29T13:03:45;101825.47;;;28.48;33.58
67457;BME280;54319;52.038;4.640;2022-07-29T13:06:31;101826.13;;;28.51;34.06